Urb San Daniel, Puerto Rico
Current Conditions -  °F | °C
As of 6:50 AM on Sunday 28 Dec 2014 (Local Time) from TJBQ Reporting Station
Scattered Clouds Scattered Clouds  
Wind Chill: 73°   Ceiling: Unl
Heat Index: 73°   Visibility: 10mi
Dew Point: 66°   Wind: 6mph
Humidity: 78%   Direction: 90°E
Pressure: 30.05"   Gusts: NA
Location:  18.4739°N, 66.7295°W
Report Text: TJBQ 281050Z 09005KT 10SM SCT025 SCT032 SCT040 23/19 A3005 RMK RWY 8 ATIS N
Loading
Personal Weather Stations






























Interactive Weather Map New forecast layout! Learn more

10-Day Weather Forecast

Advertisements
Track Severe Weather on mobile